Time;durP1;ratioP1;P1;durP2;ratioP2;P2;SDS_P1;SDS_P2;PMS_P1;PMS_P2;Temp;Humidity;BMP_temperature;BMP_pressure;BME280_temperature;BME280_humidity;BME280_pressure;Samples;Min_cycle;Max_cycle;Signal;HPM_P1;HPM_P2
2023/05/06 10:29:47;;;;;;;15.32;8.48;;;;;;;30.45;28.64;100799.41;5094660;27;20405;-79
2023/05/06 10:32:43;;;;;;;11.18;7.78;;;;;;;30.28;28.82;100792.31;5079365;28;20549;-80
2023/05/06 10:35:49;;;;;;;11.07;8.00;;;;;;;28.10;33.23;100789.25;5092556;28;20051;-81
2023/05/06 10:38:46;;;;;;;16.35;10.13;;;;;;;26.53;35.85;100796.13;5095118;28;20043;-81
2023/05/06 10:41:41;;;;;;;11.60;9.15;;;;;;;26.66;36.10;100782.41;5099229;28;20055;-85
2023/05/06 10:45:08;;;;;;;11.38;7.85;;;;;;;26.41;36.41;100780.00;5091998;28;20122;-80
2023/05/06 10:48:07;;;;;;;12.80;9.55;;;;;;;26.58;36.80;100773.34;5085568;28;20522;-81
2023/05/06 10:51:22;;;;;;;11.25;8.77;;;;;;;26.60;35.85;100767.34;5080649;28;20416;-80
2023/05/06 10:54:23;;;;;;;11.10;8.88;;;;;;;26.28;37.33;100768.63;5076281;28;20040;-80
2023/05/06 10:57:18;;;;;;;13.07;8.48;;;;;;;26.15;37.54;100778.75;5085670;28;20055;-81
2023/05/06 11:00:12;;;;;;;;;;;;;;;26.06;38.29;100769.34;5093985;28;20051;-78
2023/05/06 11:03:09;;;;;;;12.63;9.70;;;;;;;25.48;39.34;100763.66;5087391;28;19912;-81
2023/05/06 11:06:04;;;;;;;13.32;9.15;;;;;;;25.32;39.24;100760.66;5096190;28;20808;-81
2023/05/06 11:09:02;;;;;;;14.70;10.77;;;;;;;25.54;38.43;100756.44;5094833;28;20047;-81
2023/05/06 11:12:02;;;;;;;13.50;9.93;;;;;;;25.72;38.28;100749.88;5096243;28;20048;-81
2023/05/06 11:15:15;;;;;;;12.85;8.57;;;;;;;25.09;39.99;100760.53;5092801;28;20047;-81
2023/05/06 11:18:33;;;;;;;8.00;7.18;;;;;;;25.43;39.48;100747.41;5097177;28;20098;-81
2023/05/06 11:21:41;;;;;;;12.60;8.82;;;;;;;25.19;40.30;100750.47;5085704;28;20050;-80
2023/05/06 11:24:46;;;;;;;9.68;7.28;;;;;;;24.68;41.46;100747.34;5085072;28;20530;-82
2023/05/06 11:27:39;;;;;;;10.15;7.43;;;;;;;24.19;42.56;100744.94;5096914;28;20055;-80
2023/05/06 11:30:32;;;;;;;10.20;7.60;;;;;;;23.82;43.78;100746.28;5087013;28;20055;-80
2023/05/06 11:33:33;;;;;;;11.77;8.73;;;;;;;24.58;41.73;100739.09;5086613;28;20059;-84
2023/05/06 11:36:27;;;;;;;19.67;10.88;;;;;;;25.34;40.92;100741.56;5098506;28;20040;-85
2023/05/06 11:39:20;;;;;;;11.55;9.38;;;;;;;25.36;40.55;100735.56;5097578;28;20040;-81
2023/05/06 11:42:14;;;;;;;77.00;24.00;;;;;;;24.78;42.53;100740.13;5085032;28;20052;-80
2023/05/06 11:45:10;;;;;;;23.08;12.00;;;;;;;25.23;39.61;100735.31;5080469;28;20055;-80
2023/05/06 11:48:02;;;;;;;24.42;12.13;;;;;;;25.63;39.27;100736.47;5080926;28;20051;-81
2023/05/06 11:50:54;;;;;;;110.18;27.58;;;;;;;25.28;39.71;100742.44;5076619;28;20055;-79
2023/05/06 11:53:46;;;;;;;108.68;29.95;;;;;;;24.66;41.38;100740.63;5076103;28;20032;-80
2023/05/06 11:56:49;;;;;;;52.22;17.95;;;;;;;25.25;39.47;100741.25;5075250;28;20404;-81
2023/05/06 11:59:41;;;;;;;;;;;;;;;25.14;40.68;100737.81;5075801;28;20043;-80
2023/05/06 12:02:33;;;;;;;40.33;13.40;;;;;;;25.26;40.03;100740.03;5062152;28;19917;-81
2023/05/06 12:05:28;;;;;;;14.75;10.93;;;;;;;25.78;39.50;100734.28;5078114;28;20044;-80
2023/05/06 12:08:22;;;;;;;12.40;9.45;;;;;;;25.92;38.28;100729.28;5086126;28;20047;-82
2023/05/06 12:11:17;;;;;;;12.57;9.13;;;;;;;26.13;38.45;100733.78;5083783;28;20052;-81
2023/05/06 12:14:13;;;;;;;20.50;10.93;;;;;;;25.90;39.10;100725.38;5085219;28;20068;-81
2023/05/06 12:17:07;;;;;;;18.98;10.68;;;;;;;26.18;37.41;100718.56;5076243;28;20043;-81
2023/05/06 12:19:59;;;;;;;14.90;10.38;;;;;;;26.07;38.15;100720.72;5080784;28;20048;-81
2023/05/06 12:23:16;;;;;;;16.83;11.05;;;;;;;26.30;37.34;100713.25;5071463;28;20048;-81
2023/05/06 12:26:11;;;;;;;13.90;8.40;;;;;;;26.29;38.05;100710.88;5079910;28;20047;-81
2023/05/06 12:29:09;;;;;;;;;;;;;;;26.25;38.40;100716.50;5078377;28;20408;-81
2023/05/06 12:32:13;;;;;;;14.27;10.70;;;;;;;26.49;38.27;100720.09;5080744;28;19916;-81
2023/05/06 12:35:08;;;;;;;13.02;10.23;;;;;;;26.25;38.67;100710.13;5078327;28;20071;-81
2023/05/06 12:38:08;;;;;;;;;;;;;;;25.96;39.03;100706.94;5080036;28;20036;-80
2023/05/06 12:40:57;;;;;;;21.35;11.85;;;;;;;25.96;39.03;100715.31;5082949;28;19916;-80
2023/05/06 12:43:52;;;;;;;20.10;10.35;;;;;;;25.83;39.02;100700.38;5082093;28;20048;-80
2023/05/06 12:46:54;;;;;;;11.35;9.20;;;;;;;25.80;39.61;100701.22;5072366;28;20052;-79
2023/05/06 12:49:57;;;;;;;20.38;12.75;;;;;;;25.82;40.65;100699.59;5077832;28;20048;-81
2023/05/06 12:52:52;;;;;;;16.42;11.50;;;;;;;26.19;39.19;100692.28;5071340;28;20111;-81
2023/05/06 12:55:44;;;;;;;16.80;12.23;;;;;;;26.33;39.14;100687.28;5072277;28;20051;-80
2023/05/06 12:58:39;;;;;;;13.88;11.40;;;;;;;26.57;39.22;100692.84;5076543;28;20040;-79
2023/05/06 13:01:31;;;;;;;;;;;;;;;26.22;38.68;100685.88;5083921;28;20059;-79
2023/05/06 13:04:26;;;;;;;12.60;9.77;;;;;;;25.98;39.22;100685.03;5083183;28;19912;-80
2023/05/06 13:07:18;;;;;;;;;;;;;;;26.15;39.20;100683.19;5081909;28;20063;-80
2023/05/06 13:10:10;;;;;;;15.68;12.45;;;;;;;26.11;38.97;100686.00;5079203;28;19912;-81
2023/05/06 13:13:05;;;;;;;12.75;10.20;;;;;;;26.23;38.66;100681.88;5078956;28;20063;-81
2023/05/06 13:15:57;;;;;;;;;;;;;;;26.31;38.55;100675.75;5077483;28;20043;-81
2023/05/06 13:18:51;;;;;;;17.95;11.75;;;;;;;26.47;37.73;100669.53;5074868;28;20382;-81
2023/05/06 13:21:46;;;;;;;33.13;11.60;;;;;;;26.43;38.22;100666.00;5066906;28;20041;-80
2023/05/06 13:24:40;;;;;;;12.77;10.73;;;;;;;25.62;39.73;100664.44;5068373;28;20044;-80
2023/05/06 13:27:35;;;;;;;15.93;7.38;;;;;;;25.72;39.73;100669.09;5077889;28;20059;-80
2023/05/06 13:30:27;;;;;;;18.00;10.68;;;;;;;25.50;40.71;100669.34;5068430;28;20514;-80
2023/05/06 13:33:22;;;;;;;14.98;9.60;;;;;;;25.31;40.67;100661.63;5070715;28;20036;-80
2023/05/06 13:36:16;;;;;;;12.70;8.25;;;;;;;25.20;41.10;100663.75;5076184;28;20047;-81
2023/05/06 13:39:08;;;;;;;18.08;11.93;;;;;;;25.30;40.67;100662.03;5074849;28;20059;-80
2023/05/06 13:42:03;;;;;;;13.07;10.52;;;;;;;25.55;39.76;100659.75;5076646;28;20047;-81
2023/05/06 13:44:57;;;;;;;10.90;7.93;;;;;;;25.57;40.00;100656.56;5070285;28;20041;-81
2023/05/06 13:47:52;;;;;;;12.40;10.05;;;;;;;25.74;41.05;100655.53;5075793;28;20522;-82
2023/05/06 13:50:48;;;;;;;17.08;10.43;;;;;;;25.89;40.50;100657.69;5076355;28;20514;-81
2023/05/06 13:53:42;;;;;;;19.58;9.40;;;;;;;25.26;41.05;100650.16;5060507;28;20052;-81
2023/05/06 13:56:37;;;;;;;16.48;12.30;;;;;;;25.17;40.61;100644.31;5079877;28;20051;-82
2023/05/06 13:59:29;;;;;;;14.95;11.30;;;;;;;25.83;40.73;100648.22;5060169;28;20044;-82
2023/05/06 14:02:25;;;;;;;16.80;10.45;;;;;;;25.71;39.47;100646.00;5075177;28;20404;-81
2023/05/06 14:05:20;;;;;;;18.33;11.13;;;;;;;25.81;39.13;100644.28;5071816;28;20511;-82
2023/05/06 14:08:14;;;;;;;13.43;11.20;;;;;;;25.94;38.97;100648.06;5076628;28;20049;-82
2023/05/06 14:11:08;;;;;;;13.32;8.18;;;;;;;25.96;39.17;100649.22;5082992;28;20051;-81
2023/05/06 14:14:00;;;;;;;21.95;9.75;;;;;;;26.02;39.66;100641.16;5080369;28;20051;-81
2023/05/06 14:16:55;;;;;;;15.55;11.65;;;;;;;26.17;38.99;100639.72;5077403;28;20047;-81
2023/05/06 14:19:49;;;;;;;14.55;10.30;;;;;;;26.11;38.74;100632.28;5081010;28;20039;-81
2023/05/06 14:22:44;;;;;;;10.35;8.13;;;;;;;26.30;38.95;100632.38;5066479;28;20055;-81
2023/05/06 14:25:39;;;;;;;7.70;6.57;;;;;;;26.21;38.85;100628.53;5062085;28;20515;-81
2023/05/06 14:28:31;;;;;;;;;;;;;;;25.52;40.33;100632.72;5060551;28;20040;-81
2023/05/06 14:31:23;;;;;;;11.20;7.20;;;;;;;24.82;41.95;100631.59;5058052;28;19917;-82
2023/05/06 14:34:17;;;;;;;18.95;12.98;;;;;;;25.01;40.84;100623.44;5061396;28;20044;-86
2023/05/06 14:37:10;;;;;;;8.57;7.07;;;;;;;24.27;43.67;100630.53;5068726;28;20036;-81
2023/05/06 14:39:57;;;;;;;16.08;9.88;;;;;;;24.38;42.19;100621.31;5071591;28;20538;-85
2023/05/06 14:42:52;;;;;;;10.35;7.97;;;;;;;24.91;41.79;100620.78;5077882;28;20055;-81
2023/05/06 14:45:46;;;;;;;11.05;7.32;;;;;;;24.52;42.56;100613.63;5058118;28;20044;-81
2023/05/06 14:48:41;;;;;;;20.45;10.75;;;;;;;24.82;40.99;100620.47;5061694;28;20044;-81
2023/05/06 14:51:33;;;;;;;11.15;8.13;;;;;;;25.10;40.43;100615.38;5059066;28;20045;-81
2023/05/06 14:54:28;;;;;;;9.38;7.72;;;;;;;25.08;40.64;100611.44;5057021;28;20530;-81
2023/05/06 14:57:23;;;;;;;11.85;7.05;;;;;;;25.18;41.00;100606.94;5060783;28;20068;-81
2023/05/06 15:00:15;;;;;;;21.08;7.93;;;;;;;24.92;42.02;100605.66;5071245;28;20040;-81
2023/05/06 15:03:10;;;;;;;15.43;6.60;;;;;;;24.16;43.80;100612.34;5075073;28;20051;-81
2023/05/06 15:06:04;;;;;;;10.80;6.88;;;;;;;24.38;42.48;100610.19;5071212;28;20412;-80
2023/05/06 15:08:59;;;;;;;9.88;5.45;;;;;;;24.13;43.51;100608.38;5069984;28;20044;-81
2023/05/06 15:11:53;;;;;;;14.57;7.60;;;;;;;23.77;44.43;100607.84;5072093;28;20040;-81
2023/05/06 15:14:47;;;;;;;14.43;10.43;;;;;;;24.75;40.85;100604.63;5068277;28;20051;-80
2023/05/06 15:17:42;;;;;;;11.30;7.43;;;;;;;24.52;42.52;100604.50;5081272;28;20040;-80
2023/05/06 15:20:35;;;;;;;8.13;6.38;;;;;;;24.34;42.91;100590.75;5074442;28;20411;-80
2023/05/06 15:23:29;;;;;;;10.40;6.60;;;;;;;24.80;41.46;100590.25;5069503;28;20043;-80
2023/05/06 15:26:24;;;;;;;7.70;5.85;;;;;;;24.28;43.19;100597.94;5075591;28;20518;-82
2023/05/06 15:29:16;;;;;;;11.07;6.70;;;;;;;24.55;41.28;100595.31;5069277;28;20040;-81
2023/05/06 15:32:10;;;;;;;6.18;5.25;;;;;;;24.20;43.37;100596.44;5069915;28;20051;-81
2023/05/06 15:35:03;;;;;;;8.18;4.65;;;;;;;24.64;41.91;100595.59;5076646;28;20044;-81
2023/05/06 15:37:57;;;;;;;12.98;6.90;;;;;;;24.08;43.43;100596.91;5076568;28;20046;-81
2023/05/06 15:40:52;;;;;;;5.70;5.00;;;;;;;23.75;44.55;100599.16;5080191;28;20407;-80
2023/05/06 15:43:44;;;;;;;9.07;5.53;;;;;;;23.79;44.52;100599.91;5069612;28;20067;-80
2023/05/06 15:46:39;;;;;;;7.70;5.93;;;;;;;23.88;44.91;100602.22;5073024;28;20059;-79
2023/05/06 15:49:35;;;;;;;8.52;6.25;;;;;;;23.74;45.20;100603.13;5078276;28;20403;-80
2023/05/06 15:52:29;;;;;;;5.82;5.13;;;;;;;23.38;46.47;100593.41;5074447;28;20043;-80
2023/05/06 15:55:24;;;;;;;10.20;5.50;;;;;;;23.43;46.05;100596.56;5079405;28;20051;-81
2023/05/06 15:58:18;;;;;;;8.40;6.15;;;;;;;22.97;47.81;100594.00;5082557;28;20043;-81
2023/05/06 16:01:13;;;;;;;8.93;6.78;;;;;;;22.84;48.40;100590.09;5073087;28;20048;-81
2023/05/06 16:04:03;;;;;;;13.43;7.53;;;;;;;22.78;48.74;100594.47;5076761;28;20119;-80
2023/05/06 16:06:57;;;;;;;10.90;8.00;;;;;;;22.95;48.17;100590.06;5074609;28;20071;-81
2023/05/06 16:09:52;;;;;;;14.32;7.35;;;;;;;23.05;48.23;100582.88;5074749;28;20047;-81
2023/05/06 16:12:45;;;;;;;20.85;7.60;;;;;;;23.18;47.95;100584.78;5076026;28;20060;-81
2023/05/06 16:15:39;;;;;;;11.93;7.97;;;;;;;23.28;47.67;100575.63;5076844;28;20063;-81
2023/05/06 16:18:33;;;;;;;14.60;9.43;;;;;;;23.35;47.80;100577.56;5076902;28;20063;-81
2023/05/06 16:21:26;;;;;;;10.40;7.65;;;;;;;23.50;47.22;100572.75;5081577;28;20043;-81
2023/05/06 16:24:18;;;;;;;9.65;7.63;;;;;;;23.26;47.93;100571.69;5075355;28;20043;-81
2023/05/06 16:27:12;;;;;;;39.60;7.68;;;;;;;23.34;47.82;100564.88;5069084;28;20072;-81
2023/05/06 16:30:07;;;;;;;9.82;6.50;;;;;;;23.58;46.87;100565.94;5071513;28;20052;-81
2023/05/06 16:32:59;;;;;;;18.77;6.68;;;;;;;23.42;47.45;100569.19;5078132;28;20059;-80
2023/05/06 16:35:53;;;;;;;8.90;5.70;;;;;;;23.25;48.24;100570.09;5080723;28;20051;-81
2023/05/06 16:38:48;;;;;;;9.02;6.78;;;;;;;23.26;47.95;100580.78;5059437;28;20115;-81
2023/05/06 16:41:42;;;;;;;7.40;6.03;;;;;;;23.38;47.71;100579.53;5062628;28;20048;-81
2023/05/06 16:44:32;;;;;;;9.00;5.43;;;;;;;23.31;48.19;100585.94;5060587;28;20043;-80
2023/05/06 16:47:26;;;;;;;8.82;5.70;;;;;;;23.32;47.88;100586.69;5079243;28;20044;-81
2023/05/06 16:50:21;;;;;;;8.95;5.90;;;;;;;23.37;47.91;100589.03;5078976;28;20059;-80
2023/05/06 16:53:16;;;;;;;12.93;8.07;;;;;;;23.68;47.79;100587.28;5077463;28;20056;-81
2023/05/06 16:56:05;;;;;;;15.30;9.50;;;;;;;23.92;46.89;100582.78;5082990;28;20419;-81
2023/05/06 16:59:00;;;;;;;11.10;7.68;;;;;;;23.74;46.92;100586.47;5080613;28;20048;-82
2023/05/06 17:01:55;;;;;;;11.52;8.00;;;;;;;23.92;46.60;100582.78;5079747;28;20040;-79
2023/05/06 17:04:49;;;;;;;11.63;8.88;;;;;;;23.81;46.55;100589.22;5067646;28;20211;-81
2023/05/06 17:07:42;;;;;;;13.40;9.65;;;;;;;23.81;46.60;100586.44;5071519;28;20055;-81
2023/05/06 17:10:34;;;;;;;15.90;9.43;;;;;;;23.92;46.77;100580.00;5079845;28;20063;-85
2023/05/06 17:13:25;;;;;;;16.63;10.07;;;;;;;23.87;46.85;100584.78;5072756;28;20510;-82
2023/05/06 17:16:18;;;;;;;13.70;9.45;;;;;;;23.79;46.84;100577.69;5067348;28;20519;-81
2023/05/06 17:19:12;;;;;;;11.60;8.88;;;;;;;23.81;47.30;100578.09;5079074;28;20407;-82
2023/05/06 17:22:06;;;;;;;12.57;9.30;;;;;;;23.75;47.56;100576.16;5078314;28;20530;-82
2023/05/06 17:25:01;;;;;;;11.07;9.32;;;;;;;23.75;46.92;100579.72;5083601;28;20055;-82
2023/05/06 17:27:55;;;;;;;25.55;11.38;;;;;;;23.71;47.33;100575.41;5081681;28;20048;-81
2023/05/06 17:30:50;;;;;;;15.45;9.82;;;;;;;23.71;46.84;100578.16;5079416;28;20048;-82
2023/05/06 17:33:45;;;;;;;10.07;8.05;;;;;;;23.73;47.34;100587.66;5068394;28;20415;-80
2023/05/06 17:36:39;;;;;;;12.07;9.20;;;;;;;23.65;46.84;100596.47;5077239;28;20043;-82
2023/05/06 17:39:31;;;;;;;16.05;11.13;;;;;;;23.68;47.09;100590.88;5080758;28;20043;-80
2023/05/06 17:42:26;;;;;;;14.40;10.77;;;;;;;23.65;47.77;100591.69;5071116;28;20518;-82
2023/05/06 17:45:20;;;;;;;13.07;10.27;;;;;;;23.63;47.82;100591.31;5075622;28;20047;-81
2023/05/06 17:48:15;;;;;;;13.32;9.80;;;;;;;23.69;47.68;100584.13;5080336;28;20419;-81
2023/05/06 17:51:10;;;;;;;13.52;10.32;;;;;;;23.66;47.72;100590.50;5078914;28;20059;-81
2023/05/06 17:54:02;;;;;;;12.85;9.40;;;;;;;23.63;47.92;100588.53;5082623;28;20047;-81
2023/05/06 17:56:56;;;;;;;11.90;9.75;;;;;;;23.50;48.03;100592.19;5076840;28;20052;-81
2023/05/06 17:59:49;;;;;;;11.75;9.70;;;;;;;23.54;48.04;100592.94;5074364;28;20043;-81
2023/05/06 18:02:43;;;;;;;19.40;10.52;;;;;;;23.59;48.33;100589.75;5059121;28;20250;-81
2023/05/06 18:05:38;;;;;;;14.43;9.90;;;;;;;23.61;48.44;100585.38;5059413;28;20503;-80
2023/05/06 18:08:32;;;;;;;21.33;10.20;;;;;;;23.56;48.91;100590.56;5060186;28;20052;-81
2023/05/06 18:11:27;;;;;;;17.27;9.93;;;;;;;23.46;49.07;100591.44;5080556;28;20518;-80
2023/05/06 18:14:19;;;;;;;14.00;9.75;;;;;;;23.41;49.55;100592.63;5081532;28;20048;-81
2023/05/06 18:17:14;;;;;;;19.88;10.27;;;;;;;23.37;49.69;100597.38;5081140;28;20059;-80
2023/05/06 18:20:09;;;;;;;18.58;10.30;;;;;;;23.42;49.53;100596.94;5074729;28;20029;-81
2023/05/06 18:23:04;;;;;;;12.63;10.02;;;;;;;23.38;50.18;100590.63;5074788;28;20103;-81
2023/05/06 18:25:59;;;;;;;17.17;11.88;;;;;;;23.38;50.06;100591.44;5073076;28;20063;-80
2023/05/06 18:28:53;;;;;;;12.60;10.27;;;;;;;23.39;50.21;100592.22;5074836;28;20052;-81
2023/05/06 18:31:48;;;;;;;12.73;9.68;;;;;;;23.38;50.02;100599.75;5074788;28;20419;-80
2023/05/06 18:34:40;;;;;;;17.00;11.38;;;;;;;23.34;50.27;100606.53;5077274;28;20044;-80
2023/05/06 18:37:34;;;;;;;14.23;10.85;;;;;;;23.28;50.49;100603.38;5069460;28;20043;-81
2023/05/06 18:40:29;;;;;;;20.45;11.43;;;;;;;23.38;50.29;100608.06;5065677;28;20025;-80
2023/05/06 18:43:25;;;;;;;15.88;11.15;;;;;;;23.38;50.54;100612.84;5072980;28;20507;-81
2023/05/06 18:46:17;;;;;;;17.65;12.32;;;;;;;23.26;51.09;100621.63;5077345;28;20054;-79
2023/05/06 18:49:09;;;;;;;15.13;11.60;;;;;;;23.36;50.74;100618.81;5080173;28;20043;-80
2023/05/06 18:52:03;;;;;;;22.85;9.35;;;;;;;23.37;50.41;100625.13;5077722;28;20052;-81
2023/05/06 18:54:56;;;;;;;16.67;11.55;;;;;;;23.42;50.33;100630.25;5081695;28;20052;-80
2023/05/06 18:57:45;;;;;;;8.65;7.43;;;;;;;23.41;49.76;100634.25;5075067;28;20032;-80
2023/05/06 19:00:40;;;;;;;8.20;7.03;;;;;;;23.29;50.37;100637.47;5073086;28;20614;-80
2023/05/06 19:03:33;;;;;;;14.32;7.20;;;;;;;23.27;49.92;100637.06;5067826;28;20059;-80
2023/05/06 19:06:25;;;;;;;11.65;7.45;;;;;;;23.30;50.94;100639.06;5077860;28;20039;-79
2023/05/06 19:09:20;;;;;;;7.32;6.50;;;;;;;23.20;50.13;100645.44;5073994;28;20039;-80
2023/05/06 19:12:14;;;;;;;10.98;5.90;;;;;;;23.20;50.11;100651.00;5076648;28;20051;-79
2023/05/06 19:15:10;;;;;;;9.55;6.15;;;;;;;23.22;51.04;100651.34;5077008;28;20052;-80
2023/05/06 19:18:02;;;;;;;9.35;7.25;;;;;;;23.15;50.79;100654.19;5070297;28;20055;-80
2023/05/06 19:20:57;;;;;;;14.60;9.43;;;;;;;23.12;51.16;100652.19;5072622;28;20040;-80
2023/05/06 19:23:51;;;;;;;13.02;7.13;;;;;;;23.04;51.32;100648.66;5079906;28;20055;-81
2023/05/06 19:26:41;;;;;;;10.88;6.25;;;;;;;23.05;51.54;100657.78;5070121;28;20040;-80
2023/05/06 19:29:33;;;;;;;9.32;7.25;;;;;;;23.07;51.48;100669.25;5077398;28;20407;-80
2023/05/06 19:32:25;;;;;;;13.25;10.85;;;;;;;23.06;51.75;100667.69;5060952;28;20416;-80
2023/05/06 19:35:15;;;;;;;12.48;10.00;;;;;;;22.97;51.71;100671.66;5068248;28;20047;-79
2023/05/06 19:38:08;;;;;;;16.20;9.25;;;;;;;22.92;51.51;100672.06;5064392;28;20048;-80
2023/05/06 19:40:59;;;;;;;13.95;11.35;;;;;;;22.85;52.34;100679.63;5066198;28;20044;-80
2023/05/06 19:43:52;;;;;;;16.85;12.13;;;;;;;22.89;51.99;100674.84;5064302;28;20048;-80
2023/05/06 19:46:44;;;;;;;9.93;5.75;;;;;;;22.76;51.76;100677.25;5064049;28;20067;-79
2023/05/06 19:49:39;;;;;;;19.10;9.75;;;;;;;22.74;52.26;100667.75;5067501;28;20036;-79
2023/05/06 19:52:30;;;;;;;15.57;12.35;;;;;;;22.74;52.81;100673.31;5076594;28;20052;-79
2023/05/06 19:55:25;;;;;;;10.52;8.77;;;;;;;22.72;52.56;100670.94;5061550;28;20388;-79
2023/05/06 19:58:20;;;;;;;8.88;7.18;;;;;;;22.68;52.75;100675.66;5064464;28;20047;-79
2023/05/06 20:01:15;;;;;;;7.03;5.45;;;;;;;22.66;52.63;100672.47;5060798;28;20043;-80
2023/05/06 20:04:08;;;;;;;11.60;9.60;;;;;;;22.57;53.10;100681.22;5064780;28;20052;-79
2023/05/06 20:07:00;;;;;;;7.97;6.47;;;;;;;22.56;52.81;100676.84;5063425;28;20044;-79
2023/05/06 20:09:54;;;;;;;13.02;9.07;;;;;;;22.63;53.06;100676.06;5061820;28;20044;-80
2023/05/06 20:12:49;;;;;;;19.05;12.30;;;;;;;22.56;53.40;100681.59;5062455;28;20052;-80
2023/05/06 20:15:44;;;;;;;18.60;13.77;;;;;;;22.55;53.40;100683.56;5078162;28;20040;-79
2023/05/06 20:18:36;;;;;;;15.93;13.75;;;;;;;22.41;54.49;100680.81;5070559;28;20411;-80
2023/05/06 20:21:30;;;;;;;24.10;15.35;;;;;;;22.46;54.01;100674.09;5084639;28;20044;-80
2023/05/06 20:24:23;;;;;;;18.23;12.43;;;;;;;22.63;53.99;100684.38;5080406;28;20051;-80
2023/05/06 20:27:13;;;;;;;16.42;12.63;;;;;;;22.61;53.80;100689.50;5084465;28;20415;-81
2023/05/06 20:30:08;;;;;;;11.63;9.15;;;;;;;22.53;52.94;100696.25;5080440;28;20040;-79
2023/05/06 20:33:03;;;;;;;13.60;9.75;;;;;;;22.46;53.31;100694.28;5073802;28;20056;-79
2023/05/06 20:35:57;;;;;;;17.33;10.60;;;;;;;22.34;53.30;100693.91;5076851;28;20059;-80
2023/05/06 20:38:52;;;;;;;12.55;8.55;;;;;;;22.32;53.53;100701.81;5082534;28;20040;-80
2023/05/06 20:41:47;;;;;;;11.85;8.43;;;;;;;22.18;53.69;100710.91;5086173;28;20039;-80
2023/05/06 20:44:41;;;;;;;12.75;9.65;;;;;;;22.15;54.27;100711.66;5084761;28;20052;-81
2023/05/06 20:47:36;;;;;;;10.65;7.72;;;;;;;22.17;53.96;100707.34;5075078;28;20044;-80
2023/05/06 20:50:28;;;;;;;10.90;7.53;;;;;;;22.07;53.53;100713.66;5083828;28;20047;-80
2023/05/06 20:53:17;;;;;;;10.32;7.13;;;;;;;22.07;53.65;100718.41;5081084;28;20518;-79
2023/05/06 20:56:26;;;;;;;9.70;8.30;;;;;;;22.07;53.91;100710.09;5085795;28;20048;-80
2023/05/06 20:59:20;;;;;;;12.10;10.02;;;;;;;21.75;54.83;100718.28;5083244;28;20047;-79
2023/05/06 21:02:12;;;;;;;13.15;10.75;;;;;;;21.58;55.56;100722.59;5081755;28;20039;-80
2023/05/06 21:05:07;;;;;;;15.05;10.65;;;;;;;21.63;55.10;100722.22;5062047;28;20060;-80
2023/05/06 21:07:59;;;;;;;12.43;9.05;;;;;;;21.69;54.82;100720.63;5059379;28;20041;-81
2023/05/06 21:10:54;;;;;;;14.48;10.13;;;;;;;21.79;54.62;100727.38;5062834;28;20044;-81
2023/05/06 21:13:46;;;;;;;;;;;;;;;21.91;54.32;100734.53;5060351;28;20048;-80
2023/05/06 21:16:40;;;;;;;12.98;8.32;;;;;;;21.88;54.29;100733.38;5072424;28;19912;-80
2023/05/06 21:19:32;;;;;;;12.88;8.80;;;;;;;21.84;54.02;100732.53;5081907;28;20059;-80
2023/05/06 21:22:25;;;;;;;11.30;9.40;;;;;;;21.64;54.87;100734.84;5080392;28;20115;-80
2023/05/06 21:25:17;;;;;;;9.95;8.27;;;;;;;21.53;54.55;100733.25;5077575;28;20052;-79
2023/05/06 21:28:12;;;;;;;11.18;8.60;;;;;;;21.54;54.58;100735.59;5081521;28;20119;-80
2023/05/06 21:31:07;;;;;;;11.23;8.35;;;;;;;21.44;54.50;100741.88;5079106;28;20047;-80
2023/05/06 21:34:02;;;;;;;14.20;8.50;;;;;;;21.15;54.78;100740.94;5082413;28;20051;-80
2023/05/06 21:36:56;;;;;;;12.02;7.50;;;;;;;21.02;54.93;100750.72;5080591;28;20047;-80
2023/05/06 21:39:51;;;;;;;11.32;7.88;;;;;;;21.25;54.31;100756.00;5077731;28;20035;-80
2023/05/06 21:42:45;;;;;;;18.15;8.35;;;;;;;21.18;54.78;100755.97;5079099;28;20400;-80
2023/05/06 21:45:40;;;;;;;8.80;7.30;;;;;;;21.51;53.68;100755.75;5079114;28;20526;-80
2023/05/06 21:48:32;;;;;;;9.65;7.28;;;;;;;21.69;53.37;100759.38;5083069;28;20059;-79
2023/05/06 21:51:27;;;;;;;9.43;6.55;;;;;;;21.62;53.39;100764.91;5079695;28;20044;-79
2023/05/06 21:54:16;;;;;;;10.63;6.68;;;;;;;21.65;52.99;100757.78;5077554;28;20055;-80
2023/05/06 21:57:11;;;;;;;12.15;7.47;;;;;;;21.41;53.34;100752.94;5081345;28;20059;-80
2023/05/06 22:00:06;;;;;;;10.63;6.85;;;;;;;20.96;54.70;100757.78;5079138;28;20051;-80
2023/05/06 22:03:00;;;;;;;7.45;6.05;;;;;;;20.72;55.16;100761.94;5077321;28;20047;-80
2023/05/06 22:05:54;;;;;;;8.95;6.28;;;;;;;20.85;54.80;100760.47;5080186;28;20052;-80
2023/05/06 22:08:46;;;;;;;12.15;6.00;;;;;;;21.09;54.35;100758.25;5077684;28;20075;-80
2023/05/06 22:11:38;;;;;;;11.15;6.70;;;;;;;21.07;54.14;100766.16;5081532;28;20044;-80
2023/05/06 22:14:30;;;;;;;10.60;6.18;;;;;;;21.25;53.61;100767.88;5079205;28;20056;-80
2023/05/06 22:17:25;;;;;;;11.45;6.43;;;;;;;21.31;53.56;100771.06;5076726;28;20510;-80
2023/05/06 22:20:17;;;;;;;9.88;6.30;;;;;;;21.33;52.70;100763.19;5080374;28;20043;-80
2023/05/06 22:23:12;;;;;;;6.85;6.00;;;;;;;21.40;52.65;100763.22;5077957;28;20051;-80
2023/05/06 22:26:06;;;;;;;12.15;7.32;;;;;;;21.37;52.23;100757.66;5081543;28;20043;-80
2023/05/06 22:29:01;;;;;;;11.63;6.25;;;;;;;20.99;52.57;100765.28;5078802;28;20415;-81
2023/05/06 22:31:56;;;;;;;15.35;7.10;;;;;;;21.17;52.33;100766.25;5077429;28;20040;-80
2023/05/06 22:34:48;;;;;;;9.57;5.70;;;;;;;21.02;51.47;100764.53;5080637;28;20056;-80
2023/05/06 22:37:40;;;;;;;9.80;5.85;;;;;;;20.57;51.63;100762.22;5078484;28;20063;-80
2023/05/06 22:40:34;;;;;;;11.60;6.05;;;;;;;20.29;52.87;100766.25;5082079;28;20043;-81
2023/05/06 22:43:29;;;;;;;7.28;6.30;;;;;;;20.14;52.83;100753.47;5080320;28;20043;-80
2023/05/06 22:46:24;;;;;;;7.32;6.20;;;;;;;20.09;52.69;100753.81;5078194;28;20047;-80
2023/05/06 22:49:19;;;;;;;9.95;6.18;;;;;;;20.04;52.77;100749.44;5080770;28;20059;-80
2023/05/06 22:52:13;;;;;;;8.90;5.68;;;;;;;20.03;52.65;100758.09;5078436;28;20052;-81
2023/05/06 22:55:08;;;;;;;10.50;5.60;;;;;;;20.09;52.60;100762.09;5077632;28;20051;-80
2023/05/06 22:57:57;;;;;;;8.75;5.60;;;;;;;20.09;52.30;100759.34;5078622;28;20514;-80
2023/05/06 23:00:52;;;;;;;7.97;5.38;;;;;;;20.06;51.93;100758.13;5076807;28;20040;-80
2023/05/06 23:03:46;;;;;;;7.18;5.13;;;;;;;20.27;51.61;100751.22;5080625;28;20052;-80
2023/05/06 23:06:41;;;;;;;7.18;5.65;;;;;;;20.52;51.39;100757.81;5060827;28;20400;-80
2023/05/06 23:09:33;;;;;;;9.52;5.68;;;;;;;20.24;52.28;100757.50;5062408;28;20052;-81
2023/05/06 23:12:27;;;;;;;7.15;5.35;;;;;;;20.43;51.85;100768.38;5058716;28;20052;-80
2023/05/06 23:15:22;;;;;;;11.30;5.68;;;;;;;20.42;51.90;100770.34;5057883;28;20048;-80
2023/05/06 23:18:16;;;;;;;33.70;6.72;;;;;;;20.46;52.08;100764.88;5061183;28;20043;-80
2023/05/06 23:21:11;;;;;;;13.65;5.68;;;;;;;20.39;52.24;100754.53;5058861;28;20044;-80
2023/05/06 23:24:05;;;;;;;7.47;5.82;;;;;;;20.36;52.04;100760.84;5062527;28;20048;-80
2023/05/06 23:27:00;;;;;;;9.85;6.40;;;;;;;20.27;51.98;100754.78;5059926;28;20051;-80
2023/05/06 23:29:52;;;;;;;12.80;6.03;;;;;;;20.15;52.91;100754.28;5057682;28;20052;-80
2023/05/06 23:32:47;;;;;;;7.55;5.72;;;;;;;20.06;52.58;100743.53;5057721;28;20056;-80
2023/05/06 23:35:41;;;;;;;7.93;6.20;;;;;;;20.14;52.38;100744.41;5059210;28;20060;-80
2023/05/06 23:38:36;;;;;;;9.25;5.50;;;;;;;20.01;52.71;100741.88;5060076;28;20072;-80
2023/05/06 23:41:28;;;;;;;9.07;6.13;;;;;;;19.94;52.70;100736.31;5063520;28;20035;-80
2023/05/06 23:44:22;;;;;;;7.75;6.18;;;;;;;20.20;51.98;100734.59;5060981;28;20408;-80
2023/05/06 23:47:17;;;;;;;7.55;6.22;;;;;;;20.06;52.37;100732.50;5064655;28;20408;-80
2023/05/06 23:50:12;;;;;;;8.57;5.95;;;;;;;20.09;52.38;100734.50;5062656;28;20515;-80
2023/05/06 23:53:06;;;;;;;12.02;7.30;;;;;;;20.06;51.63;100738.03;5060242;28;20051;-80